Time;durP1;ratioP1;P1;durP2;ratioP2;P2;SDS_P1;SDS_P2;PMS_P1;PMS_P2;Temp;Humidity;BMP_temperature;BMP_pressure;BME280_temperature;BME280_humidity;BME280_pressure;Samples;Min_cycle;Max_cycle;Signal;HPM_P1;HPM_P2
2022/06/28 00:02:13;;;;;;;4.37;3.07;;;13.00;99.90;;;;;;5012289;28;20862;-86
2022/06/28 00:04:39;;;;;;;4.30;2.83;;;13.10;99.90;;;;;;5014755;28;21135;-85
2022/06/28 00:07:05;;;;;;;3.73;3.33;;;13.10;99.90;;;;;;5014629;28;20229;-87
2022/06/28 00:09:31;;;;;;;6.37;3.50;;;13.10;99.90;;;;;;5013096;28;20426;-86
2022/06/28 00:11:56;;;;;;;5.37;2.87;;;13.20;99.90;;;;;;5012953;28;20222;-84
2022/06/28 00:17:11;;;;;;;6.97;3.00;;;13.20;99.90;;;;;;5007712;28;20199;-86
2022/06/28 00:19:37;;;;;;;9.43;2.63;;;13.30;99.90;;;;;;5015587;28;20268;-86
2022/06/28 00:22:03;;;;;;;7.07;3.60;;;13.30;99.90;;;;;;5008651;28;20257;-83
2022/06/28 00:24:29;;;;;;;5.33;3.87;;;13.30;99.90;;;;;;5014327;28;20213;-86
2022/06/28 00:26:55;;;;;;;5.57;3.07;;;13.30;99.90;;;;;;5010212;28;20676;-87
2022/06/28 00:29:21;;;;;;;5.07;2.90;;;13.40;99.90;;;;;;5012291;28;20196;-88
2022/06/28 00:31:47;;;;;;;3.93;3.50;;;13.40;99.90;;;;;;5046271;28;20981;-85
2022/06/28 00:34:13;;;;;;;4.90;3.73;;;13.50;99.90;;;;;;5009984;28;20226;-86
2022/06/28 00:36:39;;;;;;;4.13;2.67;;;13.50;99.90;;;;;;5013412;28;20239;-86
2022/06/28 00:39:04;;;;;;;5.93;2.73;;;13.40;99.90;;;;;;5014730;28;20245;-86
2022/06/28 00:41:30;;;;;;;6.87;2.80;;;13.50;99.90;;;;;;5012446;28;20199;-85
2022/06/28 00:43:56;;;;;;;3.80;2.60;;;13.40;99.90;;;;;;5011699;28;20299;-86
2022/06/28 00:46:23;;;;;;;2.27;1.93;;;13.20;99.90;;;;;;5011258;28;20225;-86
2022/06/28 00:48:49;;;;;;;3.70;2.70;;;13.10;99.90;;;;;;5019752;28;20239;-86
2022/06/28 00:51:16;;;;;;;5.60;2.57;;;13.10;99.90;;;;;;5010329;28;20302;-86
2022/06/28 00:53:42;;;;;;;3.70;2.80;;;13.00;99.90;;;;;;5011915;28;20233;-88
2022/06/28 00:56:07;;;;;;;4.87;2.90;;;13.00;99.90;;;;;;5034354;28;20237;-87
2022/06/28 00:58:33;;;;;;;5.80;3.27;;;12.90;99.90;;;;;;5011513;28;20227;-85
2022/06/28 01:00:59;;;;;;;7.43;2.80;;;12.80;99.90;;;;;;5015425;28;20226;-87
2022/06/28 01:03:25;;;;;;;3.30;2.50;;;12.80;99.90;;;;;;5014713;28;21073;-85
2022/06/28 01:05:52;;;;;;;5.93;3.47;;;12.80;99.90;;;;;;5010862;28;20215;-87
2022/06/28 01:08:18;;;;;;;3.53;2.43;;;12.80;99.90;;;;;;5008336;28;20616;-86
2022/06/28 01:10:46;;;;;;;3.47;2.53;;;12.80;99.90;;;;;;5042394;28;20215;-86
2022/06/28 01:13:13;;;;;;;4.40;2.37;;;12.90;99.90;;;;;;5047815;28;20222;-86
2022/06/28 01:15:41;;;;;;;4.80;2.30;;;12.90;99.90;;;;;;5008441;28;20220;-87
2022/06/28 01:18:09;;;;;;;9.27;2.43;;;12.90;99.90;;;;;;5012781;28;20214;-85
2022/06/28 01:20:35;;;;;;;3.40;2.03;;;12.80;99.90;;;;;;5009891;28;20988;-87
2022/06/28 01:23:02;;;;;;;8.37;2.97;;;12.80;99.90;;;;;;5014107;28;20972;-85
2022/06/28 01:25:28;;;;;;;8.60;2.97;;;12.80;99.90;;;;;;5012481;28;20219;-88
2022/06/28 01:27:55;;;;;;;5.63;2.43;;;12.90;99.90;;;;;;5027971;28;20547;-88
2022/06/28 01:30:22;;;;;;;2.83;2.33;;;12.90;99.90;;;;;;5011507;28;20261;-89
2022/06/28 01:32:49;;;;;;;5.47;1.90;;;13.10;99.90;;;;;;5013606;28;20225;-87
2022/06/28 01:35:15;;;;;;;4.00;2.23;;;13.10;99.90;;;;;;5009640;28;20191;-87
2022/06/28 01:37:41;;;;;;;4.03;2.40;;;13.20;99.90;;;;;;5010573;28;20288;-88
2022/06/28 01:40:08;;;;;;;7.47;2.27;;;13.20;99.90;;;;;;5010115;28;20471;-87
2022/06/28 01:42:34;;;;;;;8.10;2.50;;;13.30;99.90;;;;;;5012843;28;20218;-86
2022/06/28 01:45:00;;;;;;;6.90;2.83;;;13.30;99.90;;;;;;5013223;28;20225;-87
2022/06/28 01:47:28;;;;;;;4.43;2.93;;;13.40;99.90;;;;;;5007848;28;20195;-87
2022/06/28 01:49:54;;;;;;;7.77;2.63;;;13.40;99.90;;;;;;5013367;28;20234;-85
2022/06/28 01:52:21;;;;;;;7.17;1.70;;;13.40;99.90;;;;;;5012055;28;20649;-85
2022/06/28 01:54:47;;;;;;;5.03;2.50;;;13.50;99.90;;;;;;5009528;28;20772;-87
2022/06/28 01:57:15;;;;;;;10.40;4.10;;;13.50;99.90;;;;;;5010841;28;20223;-86
2022/06/28 01:59:41;;;;;;;8.50;2.37;;;13.50;99.90;;;;;;5010188;28;20265;-85
2022/06/28 02:02:07;;;;;;;6.20;2.43;;;13.50;99.90;;;;;;5043071;28;20248;-84
2022/06/28 02:04:33;;;;;;;9.43;2.60;;;13.50;99.90;;;;;;5008831;28;20265;-86
2022/06/28 02:06:59;;;;;;;4.10;2.20;;;13.50;99.90;;;;;;5011330;28;20807;-85
2022/06/28 02:09:25;;;;;;;3.10;2.13;;;13.50;99.90;;;;;;5013617;28;20217;-88
2022/06/28 02:11:52;;;;;;;4.77;1.90;;;13.60;99.90;;;;;;5011448;28;20231;-87
2022/06/28 02:14:18;;;;;;;3.20;1.70;;;13.60;99.90;;;;;;5013330;28;20198;-86
2022/06/28 02:16:44;;;;;;;4.17;1.33;;;13.60;99.90;;;;;;5012070;28;20187;-87
2022/06/28 02:19:11;;;;;;;4.40;3.07;;;13.50;99.90;;;;;;5043865;28;20223;-88
2022/06/28 02:21:38;;;;;;;3.87;2.30;;;13.50;99.90;;;;;;5009778;28;20267;-87
2022/06/28 02:24:05;;;;;;;3.27;1.37;;;13.50;99.90;;;;;;5011673;28;20215;-88
2022/06/28 02:26:34;;;;;;;3.27;1.50;;;13.50;99.90;;;;;;5011163;28;20644;-87
2022/06/28 02:29:00;;;;;;;4.47;1.67;;;13.50;99.90;;;;;;5012967;28;20305;-87
2022/06/28 02:31:27;;;;;;;1.70;1.50;;;13.50;99.90;;;;;;5011999;28;20219;-87
2022/06/28 02:33:53;;;;;;;3.53;1.50;;;13.50;99.90;;;;;;5013405;28;20258;-87
2022/06/28 02:41:55;;;;;;;4.10;1.30;;;13.50;99.90;;;;;;5013464;28;20253;-85
2022/06/28 02:44:21;;;;;;;2.87;1.23;;;13.50;99.90;;;;;;5013615;28;20182;-86
2022/06/28 02:46:47;;;;;;;2.53;1.50;;;13.50;99.90;;;;;;5000190;28;20187;-86
2022/06/28 02:49:15;;;;;;;1.10;0.90;;;13.40;99.90;;;;;;5046281;28;20293;-85
2022/06/28 02:51:41;;;;;;;1.23;1.10;;;13.40;99.90;;;;;;5014823;28;20288;-88
2022/06/28 02:54:07;;;;;;;4.10;1.87;;;13.40;99.90;;;;;;5013304;28;21337;-85
2022/06/28 02:56:33;;;;;;;3.13;1.23;;;13.50;99.90;;;;;;5013890;28;20285;-85
2022/06/28 02:58:59;;;;;;;1.27;1.17;;;13.40;99.90;;;;;;5044616;28;20183;-88
2022/06/28 03:01:25;;;;;;;6.10;2.37;;;13.40;99.90;;;;;;5032441;28;20222;-86
2022/06/28 03:03:51;;;;;;;2.63;1.80;;;13.40;99.90;;;;;;5014893;28;20222;-87
2022/06/28 03:06:17;;;;;;;1.67;1.00;;;13.40;99.90;;;;;;5014245;28;20252;-88
2022/06/28 03:08:42;;;;;;;0.87;0.73;;;13.40;99.90;;;;;;5031034;28;20251;-87
2022/06/28 03:11:08;;;;;;;2.60;1.60;;;13.40;99.90;;;;;;5015146;28;20207;-87
2022/06/28 03:13:34;;;;;;;1.30;1.20;;;13.40;99.90;;;;;;5016767;28;20216;-89
2022/06/28 03:15:59;;;;;;;1.80;1.23;;;13.40;99.90;;;;;;5013470;28;20681;-88
2022/06/28 03:18:25;;;;;;;2.67;1.20;;;13.40;99.90;;;;;;5015303;28;20318;-87
2022/06/28 03:20:51;;;;;;;1.63;1.53;;;13.30;99.90;;;;;;5000740;28;20249;-86
2022/06/28 03:23:16;;;;;;;1.60;1.37;;;13.20;99.90;;;;;;5015383;28;20322;-87
2022/06/28 03:25:42;;;;;;;1.03;0.93;;;13.00;99.90;;;;;;5032049;28;20708;-85
2022/06/28 03:28:08;;;;;;;1.10;1.00;;;13.00;99.90;;;;;;5012224;28;20215;-89
2022/06/28 03:30:34;;;;;;;1.80;1.37;;;13.10;99.90;;;;;;4997694;28;20234;-87
2022/06/28 03:33:00;;;;;;;1.40;1.20;;;13.00;99.90;;;;;;5013575;28;20245;-87
2022/06/28 03:35:25;;;;;;;4.07;1.13;;;13.00;99.90;;;;;;5014394;28;20192;-86
2022/06/28 03:37:51;;;;;;;1.37;1.27;;;13.10;99.90;;;;;;5015549;28;20355;-86
2022/06/28 03:40:17;;;;;;;2.23;1.47;;;13.10;99.90;;;;;;5015236;28;20229;-84
2022/06/28 03:42:43;;;;;;;2.63;1.50;;;13.10;99.90;;;;;;5014929;28;20313;-87
2022/06/28 03:45:09;;;;;;;5.40;2.00;;;13.10;99.90;;;;;;5046999;28;20703;-85
2022/06/28 03:47:35;;;;;;;0.97;0.90;;;13.10;99.90;;;;;;5015325;28;20195;-87
2022/06/28 03:50:01;;;;;;;1.63;1.20;;;13.20;99.90;;;;;;5013200;28;20234;-86
2022/06/28 03:52:29;;;;;;;5.70;1.40;;;13.20;99.90;;;;;;5017878;28;20242;-87
2022/06/28 03:54:59;;;;;;;6.70;1.63;;;13.20;99.90;;;;;;5044186;28;20318;-86
2022/06/28 03:57:26;;;;;;;3.23;2.53;;;13.30;99.90;;;;;;5013674;28;20222;-87
2022/06/28 03:59:52;;;;;;;1.50;1.40;;;13.50;99.90;;;;;;5014312;28;20215;-85
2022/06/28 04:02:18;;;;;;;4.63;1.77;;;13.70;99.90;;;;;;5014440;28;21234;-84
2022/06/28 04:04:44;;;;;;;6.23;2.07;;;13.90;99.90;;;;;;5014262;28;20190;-87
2022/06/28 04:07:10;;;;;;;1.37;1.27;;;14.10;99.90;;;;;;5016458;28;20222;-85
2022/06/28 04:09:35;;;;;;;2.63;1.70;;;14.30;99.90;;;;;;5012845;28;20211;-87
2022/06/28 04:12:01;;;;;;;6.93;1.77;;;14.50;99.90;;;;;;5014368;28;20254;-86
2022/06/28 04:14:27;;;;;;;2.40;1.33;;;14.90;99.90;;;;;;4993544;28;20199;-87
2022/06/28 04:16:53;;;;;;;1.50;1.13;;;15.20;99.90;;;;;;5032265;28;21036;-87
2022/06/28 04:19:18;;;;;;;3.23;1.53;;;15.40;99.90;;;;;;5027163;28;20226;-85
2022/06/28 04:21:44;;;;;;;1.23;1.17;;;15.30;99.90;;;;;;5013543;28;20557;-88
2022/06/28 04:24:10;;;;;;;1.87;1.23;;;15.40;99.90;;;;;;4994259;28;20214;-87
2022/06/28 04:26:36;;;;;;;9.13;1.43;;;15.50;99.90;;;;;;5028555;28;20219;-85
2022/06/28 04:29:02;;;;;;;1.60;1.50;;;15.50;99.90;;;;;;5011010;28;20207;-87
2022/06/28 04:31:28;;;;;;;1.53;1.43;;;15.50;99.90;;;;;;5015640;28;20788;-88
2022/06/28 04:33:53;;;;;;;11.47;1.43;;;15.60;99.90;;;;;;5009529;28;20746;-87
2022/06/28 04:36:19;;;;;;;1.37;1.23;;;15.60;99.90;;;;;;5013750;28;20241;-87
2022/06/28 04:38:45;;;;;;;4.87;1.70;;;15.60;99.90;;;;;;5013848;28;20306;-85
2022/06/28 04:41:11;;;;;;;1.13;1.03;;;15.60;99.90;;;;;;5011535;28;20540;-86
2022/06/28 04:43:37;;;;;;;2.00;1.03;;;15.50;99.90;;;;;;5017012;28;20226;-88
2022/06/28 04:46:02;;;;;;;1.10;1.00;;;15.60;99.90;;;;;;5012299;28;20219;-87
2022/06/28 04:48:28;;;;;;;3.17;1.10;;;15.60;99.90;;;;;;5012283;28;20219;-86
2022/06/28 04:50:54;;;;;;;1.10;0.90;;;15.50;99.90;;;;;;5010451;28;20250;-89
2022/06/28 04:53:20;;;;;;;2.80;1.30;;;15.50;99.90;;;;;;5012802;28;20653;-88
2022/06/28 04:55:45;;;;;;;3.87;1.07;;;15.50;99.90;;;;;;5011737;28;20284;-85
2022/06/28 04:58:11;;;;;;;1.23;0.97;;;15.60;99.90;;;;;;5010760;28;20223;-86
2022/06/28 05:00:37;;;;;;;1.33;1.23;;;15.70;99.90;;;;;;5014821;28;20222;-86
2022/06/28 05:03:02;;;;;;;2.07;1.27;;;16.00;99.90;;;;;;5011905;28;20222;-88
2022/06/28 05:05:28;;;;;;;2.07;1.20;;;16.20;99.90;;;;;;5026190;28;20199;-86
2022/06/28 05:07:54;;;;;;;3.47;1.57;;;16.40;99.90;;;;;;5015621;28;20191;-88
2022/06/28 05:10:20;;;;;;;5.93;1.40;;;16.60;99.90;;;;;;5007773;28;20305;-87
2022/06/28 05:12:45;;;;;;;3.50;1.30;;;16.80;99.90;;;;;;5027409;28;20337;-86
2022/06/28 05:15:11;;;;;;;5.87;1.53;;;16.90;99.90;;;;;;5012159;28;20218;-87
2022/06/28 05:17:37;;;;;;;3.33;1.20;;;16.90;99.90;;;;;;5010722;28;20210;-87
2022/06/28 05:20:03;;;;;;;3.63;1.70;;;17.10;99.90;;;;;;5012088;28;20191;-87
2022/06/28 05:22:29;;;;;;;1.60;1.50;;;18.70;99.90;;;;;;5011833;28;20245;-86
2022/06/28 05:24:55;;;;;;;2.27;1.10;;;22.40;99.90;;;;;;5010471;28;20566;-84
2022/06/28 05:27:21;;;;;;;3.83;1.63;;;23.70;99.90;;;;;;5015302;28;20229;-88
2022/06/28 05:29:46;;;;;;;1.97;1.67;;;23.40;99.90;;;;;;5009174;28;20644;-88
2022/06/28 05:32:13;;;;;;;3.80;1.10;;;24.20;99.90;;;;;;5012228;28;20569;-90
2022/06/28 05:34:38;;;;;;;1.40;1.30;;;27.00;99.90;;;;;;5011170;28;20262;-87
2022/06/28 05:37:05;;;;;;;1.57;1.00;;;28.90;99.90;;;;;;5010168;28;20652;-87
2022/06/28 05:39:31;;;;;;;4.80;1.30;;;29.80;99.90;;;;;;5007463;28;20942;-87
2022/06/28 05:41:58;;;;;;;1.20;1.10;;;30.20;99.90;;;;;;5013786;28;20309;-86
2022/06/28 05:44:24;;;;;;;2.00;0.90;;;30.30;99.90;;;;;;5008775;28;20249;-87
2022/06/28 05:46:51;;;;;;;4.10;1.67;;;31.50;99.90;;;;;;5012445;28;20249;-87
2022/06/28 05:49:17;;;;;;;3.28;1.23;;;32.50;99.90;;;;;;5009272;28;20587;-85
2022/06/28 05:51:43;;;;;;;6.35;1.17;;;32.70;99.90;;;;;;5012126;28;20234;-87
2022/06/28 05:54:09;;;;;;;5.45;1.20;;;31.90;99.90;;;;;;5009901;28;20223;-87
2022/06/28 05:56:36;;;;;;;5.45;1.10;;;31.80;99.90;;;;;;5008551;28;20213;-88
2022/06/28 05:59:04;;;;;;;3.50;1.33;;;31.00;99.90;;;;;;5039951;28;20191;-85
2022/06/28 06:01:30;;;;;;;2.58;1.48;;;31.00;99.90;;;;;;5006584;28;20310;-87
2022/06/28 06:03:57;;;;;;;3.92;1.13;;;31.30;99.90;;;;;;5005420;28;20290;-85
2022/06/28 06:06:24;;;;;;;3.33;1.27;;;32.00;99.90;;;;;;5005995;28;20222;-86
2022/06/28 06:08:54;;;;;;;2.88;1.30;;;32.00;99.90;;;;;;5006477;28;20679;-88
2022/06/28 06:11:20;;;;;;;4.35;1.20;;;33.20;99.90;;;;;;5003092;28;20195;-87
2022/06/28 06:13:46;;;;;;;4.82;1.10;;;34.20;99.90;;;;;;5001828;28;20257;-88
2022/06/28 06:16:11;;;;;;;6.38;1.63;;;33.90;99.90;;;;;;5006258;28;20971;-86
2022/06/28 06:18:37;;;;;;;1.13;1.02;;;30.90;99.90;;;;;;5004459;28;20613;-86
2022/06/28 06:21:03;;;;;;;1.38;1.17;;;30.30;99.90;;;;;;5008715;28;20222;-86
2022/06/28 06:23:29;;;;;;;7.63;1.52;;;30.40;99.90;;;;;;5004402;28;20687;-85
2022/06/28 06:25:54;;;;;;;2.33;1.33;;;30.20;99.90;;;;;;5006666;28;20182;-84
2022/06/28 06:28:20;;;;;;;2.67;1.02;;;29.30;99.90;;;;;;5008807;28;20716;-86
2022/06/28 06:30:46;;;;;;;2.55;1.40;;;29.20;99.90;;;;;;5008995;28;20230;-84
2022/06/28 06:33:11;;;;;;;3.90;1.17;;;31.60;99.90;;;;;;5003871;28;20639;-83
2022/06/28 06:35:37;;;;;;;4.72;1.50;;;32.60;99.90;;;;;;5001762;28;20215;-84
2022/06/28 06:38:03;;;;;;;2.35;1.17;;;33.20;99.90;;;;;;5001843;28;20210;-84
2022/06/28 06:40:30;;;;;;;2.38;1.10;;;32.40;99.90;;;;;;5005605;28;20361;-84
2022/06/28 06:42:56;;;;;;;5.40;1.40;;;31.30;99.90;;;;;;5035241;28;20250;-84
2022/06/28 06:45:22;;;;;;;3.88;1.45;;;32.60;99.90;;;;;;5005371;28;20325;-84
2022/06/28 06:47:47;;;;;;;1.73;1.15;;;31.90;99.90;;;;;;5002451;28;20211;-85
2022/06/28 06:50:13;;;;;;;2.33;1.02;;;30.70;99.90;;;;;;5036331;28;20583;-84
2022/06/28 06:52:39;;;;;;;4.05;1.42;;;30.30;99.90;;;;;;5002283;28;20234;-83
2022/06/28 06:55:06;;;;;;;6.15;1.90;;;32.00;99.90;;;;;;5007534;28;20219;-85
2022/06/28 06:57:32;;;;;;;5.28;1.42;;;31.70;99.90;;;;;;5005380;28;20329;-83
2022/06/28 06:59:57;;;;;;;2.35;0.95;;;32.80;99.90;;;;;;4999297;28;20218;-84
2022/06/28 07:02:23;;;;;;;5.57;1.63;;;33.20;99.90;;;;;;5038259;28;20601;-85
2022/06/28 07:04:49;;;;;;;2.28;1.25;;;33.60;99.90;;;;;;5038344;28;20202;-84
2022/06/28 07:07:15;;;;;;;2.28;1.42;;;31.90;99.90;;;;;;5000728;28;20238;-83
2022/06/28 07:09:40;;;;;;;3.72;1.58;;;30.30;99.90;;;;;;5001399;28;20219;-84
2022/06/28 07:12:07;;;;;;;4.43;1.17;;;27.90;99.90;;;;;;5003682;28;20293;-84
2022/06/28 07:14:32;;;;;;;3.88;1.33;;;26.10;99.90;;;;;;5002269;28;20195;-84
2022/06/28 07:16:58;;;;;;;1.42;1.10;;;24.20;99.90;;;;;;5033688;28;20206;-83
2022/06/28 07:19:24;;;;;;;5.75;1.30;;;24.30;99.90;;;;;;5001220;28;20261;-83
2022/06/28 07:21:50;;;;;;;3.92;1.40;;;26.20;99.90;;;;;;5011114;28;20380;-83
2022/06/28 07:24:17;;;;;;;3.20;1.10;;;26.90;99.90;;;;;;5001668;28;20211;-84
2022/06/28 07:26:43;;;;;;;1.50;0.70;;;28.00;99.90;;;;;;5000508;28;20211;-82
2022/06/28 07:29:09;;;;;;;5.25;1.15;;;26.40;99.90;;;;;;5004835;28;20193;-82
2022/06/28 07:31:35;;;;;;;4.57;1.13;;;26.50;99.90;;;;;;4999916;28;20254;-82
2022/06/28 07:34:01;;;;;;;1.95;0.65;;;26.00;99.90;;;;;;5023711;28;20311;-84
2022/06/28 07:36:28;;;;;;;6.20;1.45;;;24.80;99.90;;;;;;5038575;28;20230;-83
2022/06/28 07:38:54;;;;;;;6.07;1.42;;;24.20;99.90;;;;;;5003256;28;20234;-82
2022/06/28 07:41:23;;;;;;;2.65;1.45;;;24.90;99.90;;;;;;5003807;28;20196;-82
2022/06/28 07:43:52;;;;;;;4.18;0.80;;;27.20;99.90;;;;;;4988279;28;20230;-83
2022/06/28 07:46:23;;;;;;;1.65;1.00;;;27.60;99.90;;;;;;5038528;28;20600;-82
2022/06/28 07:48:50;;;;;;;3.95;1.10;;;25.70;99.90;;;;;;5003605;28;20294;-83
2022/06/28 07:54:02;;;;;;;1.17;0.80;;;25.20;99.90;;;;;;5003363;28;20215;-82
2022/06/28 07:56:28;;;;;;;3.55;1.55;;;26.70;99.90;;;;;;5002535;28;20906;-84
2022/06/28 07:58:54;;;;;;;2.92;0.90;;;27.30;99.90;;;;;;5005570;28;20706;-83
2022/06/28 08:01:22;;;;;;;3.80;1.02;;;27.80;99.90;;;;;;5005647;28;20227;-83
2022/06/28 08:03:47;;;;;;;1.95;0.80;;;28.60;99.90;;;;;;5017430;28;20961;-83
2022/06/28 08:06:13;;;;;;;3.47;1.15;;;29.60;99.90;;;;;;5003670;28;20242;-83
2022/06/28 08:08:39;;;;;;;5.18;1.13;;;29.70;99.90;;;;;;5002944;28;21007;-82
2022/06/28 08:11:05;;;;;;;3.45;1.48;;;29.90;99.90;;;;;;5006487;28;20236;-86
2022/06/28 08:13:31;;;;;;;2.38;0.93;;;30.60;99.90;;;;;;5046120;28;20233;-84
2022/06/28 08:15:58;;;;;;;2.47;0.85;;;29.60;99.90;;;;;;5012507;28;20210;-86
2022/06/28 08:18:24;;;;;;;3.42;0.98;;;29.90;99.90;;;;;;5006622;28;20215;-86
2022/06/28 08:20:49;;;;;;;4.38;0.90;;;29.10;99.90;;;;;;5011129;28;20223;-85
2022/06/28 08:23:15;;;;;;;3.30;1.02;;;29.10;99.90;;;;;;5014858;28;20257;-87
2022/06/28 08:25:42;;;;;;;2.45;1.00;;;28.40;99.90;;;;;;5012185;28;20302;-87
2022/06/28 08:28:12;;;;;;;1.25;0.82;;;29.40;99.90;;;;;;5015848;28;20219;-86
2022/06/28 08:30:39;;;;;;;1.65;0.90;;;29.50;99.90;;;;;;5009133;28;20289;-84
2022/06/28 08:33:05;;;;;;;2.00;1.15;;;29.20;99.90;;;;;;5015595;28;20214;-86
2022/06/28 08:35:30;;;;;;;2.28;1.10;;;29.40;99.90;;;;;;5009256;28;20198;-86
2022/06/28 08:37:56;;;;;;;3.53;0.93;;;30.20;99.90;;;;;;5008063;28;20270;-86
2022/06/28 08:40:25;;;;;;;2.70;0.88;;;30.90;99.90;;;;;;5009610;28;20215;-87
2022/06/28 08:42:55;;;;;;;3.17;1.20;;;29.70;99.90;;;;;;5008827;28;20215;-86
2022/06/28 08:45:22;;;;;;;3.22;1.40;;;29.30;99.90;;;;;;5007192;28;20214;-85
2022/06/28 08:47:52;;;;;;;2.08;0.93;;;29.30;99.90;;;;;;5035962;28;20684;-86
2022/06/28 08:50:40;;;;;;;4.63;1.02;;;29.30;99.90;;;;;;5005705;28;20790;-86
2022/06/28 08:53:09;;;;;;;5.47;1.52;;;28.90;99.90;;;;;;5006296;28;20683;-84
2022/06/28 08:55:36;;;;;;;1.65;0.77;;;28.80;99.90;;;;;;5011252;28;20611;-86
2022/06/28 08:58:05;;;;;;;3.08;0.90;;;28.90;99.90;;;;;;5007624;28;20218;-86
2022/06/28 09:00:31;;;;;;;3.45;1.13;;;28.50;99.90;;;;;;5007328;28;20245;-87
2022/06/28 09:02:57;;;;;;;4.20;0.90;;;27.30;99.90;;;;;;5007784;28;20750;-85
2022/06/28 09:05:26;;;;;;;3.13;0.88;;;26.30;99.90;;;;;;5007823;28;20179;-85
2022/06/28 09:07:56;;;;;;;3.83;1.17;;;26.10;99.90;;;;;;5010696;28;20194;-86
2022/06/28 09:10:22;;;;;;;1.13;0.80;;;26.00;99.90;;;;;;5008759;28;20280;-86
2022/06/28 09:12:54;;;;;;;0.93;0.75;;;27.60;99.90;;;;;;4993208;28;20224;-86
2022/06/28 09:15:25;;;;;;;4.82;1.10;;;28.30;99.90;;;;;;5041356;28;20207;-87
2022/06/28 09:17:55;;;;;;;1.02;0.70;;;29.40;99.90;;;;;;5046287;28;20673;-86
2022/06/28 09:20:35;;;;;;;3.65;0.93;;;30.00;99.90;;;;;;5007922;28;20696;-89
2022/06/28 09:23:00;;;;;;;1.65;0.88;;;30.50;99.90;;;;;;5004895;28;20171;-86
2022/06/28 09:25:31;;;;;;;1.35;0.88;;;30.10;98.30;;;;;;5007979;28;20210;-87
2022/06/28 09:28:01;;;;;;;3.25;1.38;;;29.00;99.90;;;;;;5007531;28;20199;-86
2022/06/28 09:30:30;;;;;;;1.85;1.05;;;29.20;97.50;;;;;;5038853;28;20251;-86
2022/06/28 09:32:56;;;;;;;1.05;0.60;;;27.70;99.70;;;;;;5008333;28;20225;-86
2022/06/28 09:35:24;;;;;;;1.50;0.75;;;28.00;99.90;;;;;;5041319;28;20183;-86
2022/06/28 09:37:50;;;;;;;1.23;1.00;;;29.70;99.90;;;;;;5012092;28;20667;-86
2022/06/28 09:40:22;;;;;;;0.80;0.63;;;30.80;98.30;;;;;;5003431;28;20225;-90
2022/06/28 09:43:09;;;;;;;1.33;0.82;;;30.70;95.40;;;;;;5012544;28;20241;-88
2022/06/28 09:45:37;;;;;;;2.53;1.02;;;28.40;96.90;;;;;;5010531;28;20215;-87
2022/06/28 09:48:03;;;;;;;2.63;1.02;;;27.90;98.50;;;;;;5009044;28;20203;-88
2022/06/28 09:50:31;;;;;;;5.22;1.20;;;27.00;98.90;;;;;;5007814;28;20324;-87
2022/06/28 09:52:59;;;;;;;3.03;0.85;;;27.60;98.00;;;;;;5012205;28;20660;-86
2022/06/28 09:55:29;;;;;;;2.83;1.20;;;28.90;97.80;;;;;;5012195;28;20223;-86
2022/06/28 09:57:55;;;;;;;1.88;1.02;;;28.80;95.20;;;;;;5008277;28;20747;-86
2022/06/28 10:00:21;;;;;;;3.25;1.40;;;29.20;98.10;;;;;;5010410;28;20579;-84
2022/06/28 10:02:48;;;;;;;4.30;1.20;;;29.50;98.00;;;;;;5006393;28;20237;-86
2022/06/28 10:05:14;;;;;;;1.92;0.93;;;28.20;95.40;;;;;;5002405;28;20201;-87
2022/06/28 10:07:40;;;;;;;1.27;0.98;;;28.40;99.90;;;;;;5005831;28;20219;-86
2022/06/28 10:10:09;;;;;;;0.88;0.88;;;28.60;96.90;;;;;;5003073;28;21644;-86
2022/06/28 10:15:27;;;;;;;3.95;1.42;;;28.70;99.00;;;;;;5008167;28;20242;-86
2022/06/28 10:17:55;;;;;;;0.80;0.80;;;28.20;99.00;;;;;;5010603;28;20691;-85
2022/06/28 10:20:26;;;;;;;3.83;1.00;;;27.90;98.60;;;;;;5011083;28;20190;-87
2022/06/28 10:23:12;;;;;;;2.65;1.00;;;28.00;97.20;;;;;;5007283;28;20179;-87
2022/06/28 10:25:38;;;;;;;1.80;1.02;;;28.50;97.80;;;;;;5007033;28;20704;-86
2022/06/28 10:28:25;;;;;;;3.10;1.15;;;27.80;99.90;;;;;;5022391;28;20245;-86
2022/06/28 10:31:25;;;;;;;3.83;1.08;;;27.40;99.00;;;;;;5009933;28;20266;-88
2022/06/28 10:33:53;;;;;;;3.75;1.17;;;27.30;98.10;;;;;;5014685;28;20277;-84
2022/06/28 10:36:22;;;;;;;2.88;1.10;;;27.70;98.40;;;;;;5009913;28;20214;-87
2022/06/28 10:39:08;;;;;;;2.92;1.08;;;27.20;96.20;;;;;;5008405;28;20310;-86
2022/06/28 10:41:37;;;;;;;2.05;0.98;;;27.00;97.50;;;;;;5009204;28;20735;-86
2022/06/28 10:44:27;;;;;;;3.60;1.20;;;27.30;95.60;;;;;;5006525;28;20541;-86
2022/06/28 10:47:14;;;;;;;3.50;1.00;;;27.60;98.20;;;;;;5008380;28;20215;-85
2022/06/28 10:49:43;;;;;;;3.45;0.90;;;27.20;99.30;;;;;;5007033;28;20247;-85
2022/06/28 10:52:18;;;;;;;1.23;0.90;;;27.40;98.30;;;;;;5027612;28;20234;-87
2022/06/28 10:54:52;;;;;;;2.25;1.30;;;27.90;98.20;;;;;;5009011;28;20222;-87
2022/06/28 10:57:40;;;;;;;5.53;1.10;;;28.10;99.20;;;;;;5008218;28;20210;-88
2022/06/28 11:00:07;;;;;;;1.85;0.73;;;27.50;98.80;;;;;;5006933;28;20245;-86
2022/06/28 11:02:51;;;;;;;2.45;1.10;;;27.30;99.60;;;;;;5018799;28;20358;-88
2022/06/28 11:05:19;;;;;;;3.95;0.90;;;26.70;99.90;;;;;;5006633;28;20187;-87
2022/06/28 11:08:02;;;;;;;4.68;1.30;;;26.20;99.90;;;;;;5006890;28;20184;-84
2022/06/28 11:10:28;;;;;;;1.58;0.70;;;26.60;98.90;;;;;;5013489;28;20233;-87
2022/06/28 11:13:14;;;;;;;1.90;0.80;;;26.00;99.90;;;;;;5039252;28;20227;-86
2022/06/28 11:15:40;;;;;;;2.78;0.85;;;26.50;96.70;;;;;;5020253;28;20215;-85
2022/06/28 11:18:16;;;;;;;1.25;1.00;;;26.60;97.50;;;;;;5005293;28;20523;-87
2022/06/28 11:20:42;;;;;;;1.95;0.93;;;25.80;99.90;;;;;;5008539;28;21000;-85
2022/06/28 11:23:08;;;;;;;6.38;1.20;;;25.20;99.90;;;;;;5011481;28;20183;-85
2022/06/28 11:28:21;;;;;;;2.58;1.35;;;26.20;99.90;;;;;;5009324;28;20475;-85
2022/06/28 11:30:47;;;;;;;3.10;1.00;;;26.80;99.90;;;;;;5008149;28;20229;-86
2022/06/28 11:33:16;;;;;;;1.55;0.93;;;26.80;99.90;;;;;;5008167;28;20210;-85
2022/06/28 11:35:42;;;;;;;3.67;1.25;;;26.30;99.90;;;;;;5041208;28;20218;-86
2022/06/28 11:38:14;;;;;;;2.60;1.35;;;25.40;99.90;;;;;;5045201;28;20199;-87
2022/06/28 11:40:41;;;;;;;3.35;1.92;;;25.70;99.90;;;;;;5010560;28;20219;-86
2022/06/28 11:43:14;;;;;;;4.38;1.50;;;25.90;99.90;;;;;;5041955;28;20229;-86
2022/06/28 11:45:41;;;;;;;3.00;1.23;;;25.40;99.90;;;;;;5042384;28;20566;-84
2022/06/28 11:48:16;;;;;;;4.28;1.20;;;25.60;99.90;;;;;;5042639;28;20215;-86
2022/06/28 11:50:53;;;;;;;2.85;1.33;;;26.00;99.90;;;;;;5005913;28;20222;-85
2022/06/28 11:53:20;;;;;;;2.28;1.30;;;25.80;99.90;;;;;;5006025;28;20228;-85
2022/06/28 11:55:57;;;;;;;3.70;1.63;;;25.60;99.90;;;;;;5010493;28;20531;-86
2022/06/28 11:58:31;;;;;;;9.30;1.85;;;25.20;99.90;;;;;;5020222;28;20210;-83
2022/06/28 12:01:17;;;;;;;2.35;1.30;;;25.30;99.90;;;;;;5013480;28;20226;-84
2022/06/28 12:03:43;;;;;;;2.47;1.40;;;25.40;99.90;;;;;;5007426;28;20352;-85
2022/06/28 12:06:17;;;;;;;8.85;1.70;;;24.70;99.90;;;;;;5039053;28;20231;-84
2022/06/28 12:08:49;;;;;;;2.70;1.42;;;24.10;99.90;;;;;;5023634;28;20217;-83
2022/06/28 12:11:24;;;;;;;3.75;1.83;;;24.10;99.90;;;;;;5006559;28;20210;-86
2022/06/28 12:13:57;;;;;;;3.55;1.52;;;24.10;99.90;;;;;;5009381;28;20707;-86
2022/06/28 12:16:27;;;;;;;5.20;1.42;;;24.40;99.90;;;;;;5039033;28;21074;-86
2022/06/28 12:18:54;;;;;;;2.83;1.23;;;24.70;99.90;;;;;;5005591;28;20671;-86
2022/06/28 12:21:20;;;;;;;3.80;1.55;;;25.00;99.90;;;;;;5009166;28;20215;-85
2022/06/28 12:23:56;;;;;;;2.95;1.23;;;25.30;99.90;;;;;;5004155;28;20215;-86
2022/06/28 12:26:43;;;;;;;5.45;1.40;;;25.50;99.90;;;;;;5004069;28;20273;-85
2022/06/28 12:29:10;;;;;;;4.10;1.50;;;25.50;99.90;;;;;;5013864;28;20213;-85
2022/06/28 12:31:39;;;;;;;3.30;1.65;;;25.10;99.90;;;;;;5008623;28;20290;-85
2022/06/28 12:34:08;;;;;;;1.52;1.10;;;24.90;99.90;;;;;;5006437;28;20333;-85
2022/06/28 12:36:34;;;;;;;5.70;1.35;;;25.10;99.90;;;;;;5005721;28;20727;-84
2022/06/28 12:39:01;;;;;;;4.32;1.30;;;24.80;99.90;;;;;;5021161;28;21082;-83
2022/06/28 12:41:27;;;;;;;4.00;0.90;;;24.20;99.90;;;;;;5003466;28;20671;-85
2022/06/28 12:43:53;;;;;;;1.70;1.27;;;24.30;99.90;;;;;;5028382;28;20205;-85
2022/06/28 12:46:18;;;;;;;4.22;1.10;;;24.40;99.90;;;;;;5005314;28;20254;-85
2022/06/28 12:48:44;;;;;;;2.03;1.30;;;24.30;99.90;;;;;;5006179;28;20293;-83
2022/06/28 12:51:10;;;;;;;2.55;1.27;;;24.10;99.90;;;;;;5005653;28;20349;-83
2022/06/28 12:53:36;;;;;;;4.18;1.20;;;24.40;99.90;;;;;;5006586;28;20230;-86
2022/06/28 12:56:03;;;;;;;3.30;1.60;;;24.40;99.90;;;;;;5005025;28;20653;-84
2022/06/28 12:58:28;;;;;;;4.15;1.40;;;23.90;99.90;;;;;;5007579;28;20215;-84
2022/06/28 13:00:54;;;;;;;1.65;1.30;;;24.00;99.90;;;;;;5006694;28;20223;-84
2022/06/28 13:03:20;;;;;;;3.13;0.80;;;24.40;99.90;;;;;;5006144;28;20370;-83
2022/06/28 13:05:47;;;;;;;2.17;1.00;;;24.80;99.90;;;;;;5003493;28;20250;-84
2022/06/28 13:08:13;;;;;;;1.80;0.82;;;24.30;99.90;;;;;;5006977;28;20245;-85